Woody, CA (93287)

4:41 AM PDT on September 17, 2014 (GMT -0700)
RAWS WOFFORD HEIGHTS CA US | Change Station
CLOSE
Current Station
Personal Weather Station
Location: Wofford Heights, CA
Elevation: 3149 ft
Nearby Weather Stations

Elev 3149 ft 35.72 °N, 118.50 °W | Updated 41 minutes ago

Clear
Clear
68 °F
Feels Like 68 °F
N
8
Wind Variable Wind from WNW
Gusts 11.0 mph

Today
High -- | Low -- °F
--% Chance of Precip.
Yesterday
High -- | Low -- °F
Precip. -- in
6:39 AM 6:59 PM
Last Quarter, 36% visible
Pressure 29.75 in
Visibility 10.0 miles
Clouds Clear
Dew Point 41 °F
Humidity 37%
Rainfall 0.00 in
Snow Depth 0 in , 0 in , 0 in
UV 0 out of 12
Pollen 7.70 out of 12
Ozone Good
PM2.5 Moderate
Flu Activity Not available.
METAR KBFL 171054Z AUTO 00000KT 10SM CLR 23/13 A2977 RMK AO2 SLP075 T02330128

More Conditions Fewer Conditions

Pressure 29.75 in
Visibility 10.0 miles
Clouds Clear
Dew Point 41 °F
Humidity 37%
Rainfall 0.00 in
Snow Depth 0 in , 0 in , 0 in
UV 0 out of 12
Pollen 7.70 out of 12
Ozone Good
PM2.5 Moderate
Flu Activity Not available.
METAR KBFL 171054Z AUTO 00000KT 10SM CLR 23/13 A2977 RMK AO2 SLP075 T02330128

More Conditions Fewer Conditions

10-Day Weather Forecast

Almanac

Astronomy

Sep. 17, 2014 Rise Set
Actual Time 6:39 AM PDT 6:59 PM PDT
Civil Twilight 6:13 AM PDT 7:24 PM PDT
Nautical Twilight 5:43 AM PDT 7:54 PM PDT
Astronomical Twilight 5:13 AM PDT 8:25 PM PDT
Moon 12:52 AM PDT 3:04 PM PDT
Length of Visible Light 13h 10m
Length of Day
12h 19m
Tomorrow will be 2m 13s shorter.
Last Quarter, 36% of the Moon is Illuminated
Today
Last Quarter
Sep 24
New
Oct 1
First Quarter
Oct 8
Full
Oct 15
Last Quarter

Today's Extremes

State Highs State Lows

Community

WunderPhotos

Upload Photos

1,754,002 photos uploaded!

Nearby

Air Quality

  Air Quality AQ Index Pollutant
Yesterday Unhealthy for Sensitive Groups
OZONE
Yesterday Good
PM2.5
Current Moderate
PM2.5
Current Good
OZONE
Tuesday Unhealthy for Sensitive Groups
OZONE
Wednesday Moderate
OZONE
Thursday Moderate
OZONE
Friday Moderate
OZONE
Saturday Moderate
OZONE
Sunday Moderate
OZONE

Snow Depth

Station Depth Elevation
Leavitt Lake 0 in 9400 ft
Blue Lakes 0 in 8000 ft
Echo Peak 0 in 7800 ft
Adin Mountain 0 in 6200 ft
Fallen Leaf 0 in 6300 ft

Earthquake Activity

City Distance Mag. Time & Date
Inyokern, California 47 miles 3.2 5:56 PM PDT
2014-09-14
San Jacinto, California 168 miles 3.0 3:16 PM PDT
2014-09-14
Minimum magnitude displayed is 2.5.

Coastal Water Temperatures

Place Temperature
No Stations Reporting

Nearby Weather Stations